Time;durP1;ratioP1;P1;durP2;ratioP2;P2;SDS_P1;SDS_P2;PMS_P1;PMS_P2;Temp;Humidity;BMP_temperature;BMP_pressure;BME280_temperature;BME280_humidity;BME280_pressure;Samples;Min_cycle;Max_cycle;Signal;HPM_P1;HPM_P2
2023/05/06 04:24:59;;;;;;;5.50;3.45;;;;;;;12.28;88.27;101694.56;4990701;28;122528;-31
2023/05/06 04:27:26;;;;;;;7.03;3.60;;;;;;;12.28;88.86;101705.44;4992007;28;98165;-31
2023/05/06 04:29:52;;;;;;;5.50;3.30;;;;;;;12.34;87.69;101706.94;4990651;28;100960;-31
2023/05/06 04:32:17;;;;;;;6.85;3.75;;;;;;;12.35;88.48;101702.38;4991952;28;96522;-31
2023/05/06 04:34:42;;;;;;;6.50;3.75;;;;;;;12.36;87.67;101704.13;4991995;28;96813;-31
2023/05/06 04:37:08;;;;;;;6.90;4.20;;;;;;;12.35;87.83;101696.94;4991778;28;98909;-31
2023/05/06 04:39:35;;;;;;;5.00;3.38;;;;;;;12.40;87.78;101705.72;4991981;28;97740;-32
2023/05/06 04:42:02;;;;;;;7.40;3.83;;;;;;;12.40;88.33;101708.44;4991772;28;96695;-31
2023/05/06 04:44:28;;;;;;;6.60;3.50;;;;;;;12.41;88.24;101711.06;4992123;28;96744;-32
2023/05/06 04:46:53;;;;;;;5.43;3.20;;;;;;;12.41;87.74;101716.50;4991375;28;97972;-31
2023/05/06 04:49:18;;;;;;;5.80;3.85;;;;;;;12.43;87.93;101711.00;4991961;28;97932;-30
2023/05/06 04:51:44;;;;;;;6.13;3.47;;;;;;;12.41;87.03;101711.06;4991646;28;103908;-31
2023/05/06 04:54:09;;;;;;;8.82;3.97;;;;;;;12.45;88.49;101711.78;4991647;28;96851;-33
2023/05/06 04:56:35;;;;;;;6.70;3.67;;;;;;;12.45;89.29;101714.50;4991570;28;99427;-31
2023/05/06 04:59:00;;;;;;;6.00;3.80;;;;;;;12.47;88.03;101716.16;4993089;28;97315;-32
2023/05/06 05:01:25;;;;;;;6.90;3.97;;;;;;;12.49;87.92;101718.81;4995279;28;96764;-31
2023/05/06 05:03:51;;;;;;;6.30;3.60;;;;;;;12.51;88.07;101717.75;4995700;28;96767;-31
2023/05/06 05:06:16;;;;;;;7.68;3.90;;;;;;;12.51;87.75;101725.91;4995179;28;97939;-31
2023/05/06 05:08:42;;;;;;;5.50;3.15;;;;;;;12.52;87.41;101718.63;4994987;28;97771;-30
2023/05/06 05:11:07;;;;;;;8.38;3.80;;;;;;;12.53;87.54;101718.53;4994921;28;97222;-31
2023/05/06 05:13:33;;;;;;;5.93;3.28;;;;;;;12.58;87.19;101715.56;4994914;28;96954;-30
2023/05/06 05:15:58;;;;;;;8.52;3.58;;;;;;;12.59;87.17;101724.63;4993430;28;100984;-30
2023/05/06 05:18:24;;;;;;;7.00;3.95;;;;;;;12.60;87.15;101726.34;4995031;28;97258;-31
2023/05/06 05:20:49;;;;;;;7.18;3.47;;;;;;;12.66;87.07;101728.75;4995037;28;96657;-31
2023/05/06 05:23:15;;;;;;;6.40;3.40;;;;;;;12.67;86.79;101728.63;4994065;28;96840;-30
2023/05/06 05:25:40;;;;;;;6.20;3.90;;;;;;;12.71;87.10;101726.63;4995275;28;97297;-32
2023/05/06 05:28:05;;;;;;;7.35;4.10;;;;;;;12.72;86.95;101726.53;4995236;28;98752;-30
2023/05/06 05:30:31;;;;;;;6.05;4.07;;;;;;;12.77;86.95;101733.56;4994934;28;96900;-31
2023/05/06 05:32:56;;;;;;;6.85;3.83;;;;;;;12.79;86.95;101728.91;4994926;28;96855;-30
2023/05/06 05:35:21;;;;;;;6.78;4.15;;;;;;;12.83;86.78;101725.94;4994103;28;104394;-32
2023/05/06 05:37:47;;;;;;;7.72;3.88;;;;;;;12.86;87.48;101731.19;4994663;28;97406;-31
2023/05/06 05:40:12;;;;;;;5.95;3.75;;;;;;;12.86;88.40;101722.16;4994918;28;96621;-31
2023/05/06 05:42:38;;;;;;;7.80;4.20;;;;;;;12.90;87.33;101729.19;4994921;28;96737;-30
2023/05/06 05:45:04;;;;;;;5.68;3.47;;;;;;;12.93;88.73;101727.16;4993009;28;101271;-31
2023/05/06 05:47:30;;;;;;;8.55;4.45;;;;;;;13.00;87.44;101729.53;4992949;28;102236;-31
2023/05/06 05:49:55;;;;;;;9.30;4.90;;;;;;;13.01;89.08;101729.41;4994412;28;96502;-31
2023/05/06 05:52:20;;;;;;;8.65;4.35;;;;;;;13.02;88.98;101733.03;4994607;28;96882;-32
2023/05/06 05:54:46;;;;;;;8.23;4.10;;;;;;;13.07;88.73;101741.81;4994249;28;100113;-32
2023/05/06 05:57:11;;;;;;;10.00;4.15;;;;;;;13.06;88.04;101732.78;4994251;28;99090;-31
2023/05/06 05:59:36;;;;;;;7.18;3.88;;;;;;;13.08;88.65;101732.66;4993978;28;96531;-30
2023/05/06 06:02:02;;;;;;;7.53;4.68;;;;;;;13.09;88.18;101737.16;4994587;28;96889;-31
2023/05/06 06:04:27;;;;;;;8.50;4.25;;;;;;;13.09;89.79;101732.59;4994265;28;97932;-31
2023/05/06 06:06:56;;;;;;;7.65;3.83;;;;;;;13.06;88.71;101732.78;4993984;28;99149;-31
2023/05/06 06:09:21;;;;;;;7.80;3.90;;;;;;;13.11;88.36;101732.53;4992372;28;96616;-31
2023/05/06 06:11:47;;;;;;;7.13;3.85;;;;;;;13.16;88.14;101736.72;4994025;28;96901;-33
2023/05/06 06:14:12;;;;;;;8.00;4.57;;;;;;;13.20;88.43;101729.22;4994168;28;97457;-32
2023/05/06 06:16:37;;;;;;;6.80;4.00;;;;;;;13.24;88.20;101729.94;4994465;28;97844;-31
2023/05/06 06:19:03;;;;;;;8.82;4.55;;;;;;;13.28;88.05;101726.13;4994110;28;96422;-30
2023/05/06 06:21:28;;;;;;;10.32;5.28;;;;;;;13.29;87.91;101727.88;4993671;28;96751;-30
2023/05/06 06:23:54;;;;;;;7.85;4.90;;;;;;;13.37;87.30;101731.91;4992717;28;99484;-30
2023/05/06 06:26:20;;;;;;;6.07;3.92;;;;;;;13.43;88.21;101740.66;4992403;28;100886;-30
2023/05/06 06:28:46;;;;;;;7.43;4.00;;;;;;;13.44;88.39;101734.22;4993898;28;96475;-30
2023/05/06 06:31:12;;;;;;;7.97;4.03;;;;;;;13.45;87.85;101733.28;4992248;28;96851;-31
2023/05/06 06:33:37;;;;;;;7.57;4.47;;;;;;;13.50;87.67;101729.31;4993614;28;99698;-31
2023/05/06 06:36:03;;;;;;;7.65;4.28;;;;;;;13.60;87.83;101732.34;4993485;28;97731;-30
2023/05/06 06:38:28;;;;;;;9.07;4.50;;;;;;;13.73;87.42;101730.66;4993576;28;96567;-31
2023/05/06 06:40:53;;;;;;;8.50;4.65;;;;;;;13.83;87.75;101738.28;4993038;28;96967;-30
2023/05/06 06:43:18;;;;;;;11.07;4.03;;;;;;;13.87;87.08;101732.53;4993670;28;101238;-31
2023/05/06 06:45:47;;;;;;;11.18;4.72;;;;;;;13.87;87.04;101728.91;4993668;28;97126;-31
2023/05/06 06:48:13;;;;;;;7.25;4.40;;;;;;;13.93;86.67;101748.50;4993248;28;96608;-30
2023/05/06 06:50:38;;;;;;;7.25;3.83;;;;;;;13.97;88.42;101751.91;4993378;28;96776;-30
2023/05/06 06:53:03;;;;;;;6.78;4.22;;;;;;;14.00;87.52;101763.50;4993421;28;98052;-31
2023/05/06 06:55:28;;;;;;;8.80;3.75;;;;;;;14.06;87.73;101755.91;4993541;28;97753;-31
2023/05/06 06:57:54;;;;;;;8.90;4.15;;;;;;;14.09;87.09;101761.19;4993541;28;96601;-31
2023/05/06 07:00:19;;;;;;;8.00;3.72;;;;;;;14.16;87.22;101763.44;4993447;28;96828;-31
2023/05/06 07:02:46;;;;;;;9.50;4.03;;;;;;;14.23;87.10;101761.22;4993014;28;97408;-31
2023/05/06 07:05:12;;;;;;;8.73;3.95;;;;;;;14.26;87.49;101771.91;4993366;28;99209;-30
2023/05/06 07:07:37;;;;;;;7.78;4.10;;;;;;;14.24;87.12;101765.66;4993415;28;96669;-30
2023/05/06 07:10:03;;;;;;;8.88;4.32;;;;;;;14.25;87.33;101764.69;4993064;28;96817;-31
2023/05/06 07:12:29;;;;;;;8.25;4.50;;;;;;;14.34;86.80;101768.69;4991152;28;101085;-30
2023/05/06 07:14:54;;;;;;;8.02;4.13;;;;;;;14.34;86.82;101771.41;4993488;28;97243;-31
2023/05/06 07:17:19;;;;;;;6.55;4.07;;;;;;;14.36;87.44;101770.34;4993285;28;96500;-31
2023/05/06 07:19:44;;;;;;;11.73;4.85;;;;;;;14.40;86.89;101769.19;4993306;28;96780;-32
2023/05/06 07:22:10;;;;;;;6.57;4.07;;;;;;;14.39;87.75;101775.59;4975860;28;99325;-31
2023/05/06 07:24:35;;;;;;;8.20;4.32;;;;;;;14.48;87.07;101773.28;4972267;28;106824;-31
2023/05/06 07:27:01;;;;;;;12.20;4.78;;;;;;;14.54;86.80;101778.38;4973221;28;96485;-31
2023/05/06 07:29:26;;;;;;;10.60;4.18;;;;;;;14.50;87.17;101787.69;4973355;28;96913;-30
2023/05/06 07:31:51;;;;;;;6.20;3.40;;;;;;;14.50;87.01;101782.25;4972921;28;97568;-31
2023/05/06 07:34:18;;;;;;;8.45;4.40;;;;;;;14.59;87.45;101781.69;4972939;28;98468;-31
2023/05/06 07:36:44;;;;;;;6.53;3.88;;;;;;;14.53;87.21;101784.78;4971124;28;96982;-31
2023/05/06 07:39:10;;;;;;;10.98;4.35;;;;;;;14.59;87.04;101784.44;4972805;28;96817;-30
2023/05/06 07:41:35;;;;;;;7.90;4.10;;;;;;;14.56;88.53;101792.78;4971318;28;100786;-30
2023/05/06 07:44:02;;;;;;;7.10;3.90;;;;;;;14.57;87.53;101789.97;4972723;28;99747;-30
2023/05/06 07:46:27;;;;;;;7.65;4.53;;;;;;;14.63;87.08;101777.78;4971644;28;96488;-32
2023/05/06 07:48:53;;;;;;;11.75;4.68;;;;;;;14.70;85.73;101778.28;4972758;28;96659;-31
2023/05/06 07:51:18;;;;;;;9.73;4.90;;;;;;;14.81;85.46;101779.34;4972758;28;98001;-31
2023/05/06 07:53:44;;;;;;;10.02;4.05;;;;;;;14.89;86.50;101781.56;4973204;28;97769;-31
2023/05/06 07:56:09;;;;;;;8.60;4.25;;;;;;;14.99;87.09;101784.56;4972826;28;96599;-31
2023/05/06 07:58:34;;;;;;;7.80;4.43;;;;;;;15.06;86.36;101792.28;4972596;28;96768;-30
2023/05/06 08:01:00;;;;;;;10.60;5.43;;;;;;;15.13;85.59;101787.25;4971916;28;97320;-31
2023/05/06 08:03:25;;;;;;;12.50;5.55;;;;;;;15.25;84.75;101783.75;4972288;28;99741;-31
2023/05/06 08:05:51;;;;;;;9.85;4.78;;;;;;;15.34;84.92;101779.50;4972312;28;96678;-30
2023/05/06 08:08:18;;;;;;;10.35;4.95;;;;;;;15.48;84.16;101775.88;4971165;28;96861;-30
2023/05/06 08:10:44;;;;;;;11.40;4.80;;;;;;;15.54;84.03;101788.22;4971100;28;99000;-31
2023/05/06 08:13:10;;;;;;;8.32;4.53;;;;;;;15.59;84.15;101784.22;4970979;28;101106;-30
2023/05/06 08:15:36;;;;;;;7.20;4.35;;;;;;;15.72;84.10;101787.00;4971033;28;96542;-30
2023/05/06 08:18:01;;;;;;;9.35;4.90;;;;;;;15.89;83.34;101775.78;4971445;28;96835;-30
2023/05/06 08:20:27;;;;;;;8.60;4.80;;;;;;;16.14;82.71;101779.56;4972219;28;98066;-30
2023/05/06 08:22:52;;;;;;;8.55;4.95;;;;;;;16.50;81.20;101776.06;4972262;28;97828;-29
2023/05/06 08:25:17;;;;;;;9.32;4.28;;;;;;;16.81;79.51;101779.34;4971929;28;96569;-30
2023/05/06 08:27:44;;;;;;;6.90;4.28;;;;;;;17.04;78.54;101780.41;4972429;28;96802;-32
2023/05/06 08:30:10;;;;;;;7.57;3.90;;;;;;;17.19;78.35;101772.91;4970429;28;100794;-30
2023/05/06 08:32:35;;;;;;;8.95;4.25;;;;;;;17.43;77.88;101770.19;4971876;28;97242;-32
2023/05/06 08:35:01;;;;;;;7.18;4.63;;;;;;;17.51;77.38;101775.06;4972224;28;96651;-30
2023/05/06 08:37:26;;;;;;;8.57;4.60;;;;;;;17.59;77.13;101770.78;4972439;28;96809;-32
2023/05/06 08:39:51;;;;;;;6.53;3.70;;;;;;;17.74;75.99;101776.06;4971946;28;97402;-31
2023/05/06 08:42:17;;;;;;;11.48;4.03;;;;;;;18.02;75.51;101764.75;4971109;28;98019;-31
2023/05/06 08:44:42;;;;;;;8.95;4.30;;;;;;;18.08;74.38;101766.13;4972612;28;96514;-31
2023/05/06 08:47:08;;;;;;;9.70;3.60;;;;;;;18.07;74.21;101769.88;4972306;28;96832;-32
2023/05/06 08:49:34;;;;;;;7.72;3.80;;;;;;;18.26;73.89;101766.53;4970010;28;100944;-32
2023/05/06 08:52:04;;;;;;;7.63;4.00;;;;;;;18.51;72.86;101764.56;4971974;28;97758;-30
2023/05/06 08:54:34;;;;;;;8.00;4.75;;;;;;;18.62;71.99;101756.34;4972078;28;96448;-32
2023/05/06 08:57:03;;;;;;;8.52;4.07;;;;;;;18.90;71.74;101760.47;4970690;28;96856;-32
2023/05/06 08:59:31;;;;;;;9.27;4.20;;;;;;;18.96;69.87;101757.22;4970141;28;100878;-31
2023/05/06 09:01:57;;;;;;;4.88;2.97;;;;;;;19.08;70.19;101761.69;4970462;28;99316;-31
2023/05/06 09:04:22;;;;;;;7.00;3.75;;;;;;;19.31;69.04;101758.91;4972134;28;96479;-31
2023/05/06 09:06:47;;;;;;;7.50;3.67;;;;;;;19.46;68.72;101757.59;4972314;28;96823;-31
2023/05/06 09:09:13;;;;;;;8.60;3.72;;;;;;;19.57;68.03;101755.81;4971682;28;99770;-30
2023/05/06 09:11:39;;;;;;;9.15;4.68;;;;;;;19.73;67.74;101750.78;4970144;28;100975;-31
2023/05/06 09:14:14;;;;;;;8.23;4.10;;;;;;;19.86;67.51;101762.47;4969956;28;97162;-32
2023/05/06 09:16:45;;;;;;;10.73;4.03;;;;;;;19.93;66.38;101757.31;4970071;28;97535;-32
2023/05/06 09:19:11;;;;;;;8.00;4.27;;;;;;;19.99;66.19;101751.28;4971648;28;99608;-30
2023/05/06 09:21:39;;;;;;;9.75;3.90;;;;;;;19.82;65.17;101752.75;4970057;28;100444;-31
2023/05/06 09:24:07;;;;;;;7.72;4.25;;;;;;;19.91;66.92;101751.94;4969752;28;96660;-30
2023/05/06 09:26:34;;;;;;;5.38;3.25;;;;;;;19.98;63.92;101748.69;4970325;28;96834;-31
2023/05/06 09:29:00;;;;;;;11.50;3.80;;;;;;;19.98;62.82;101745.94;4969780;28;100923;-31
2023/05/06 09:31:26;;;;;;;9.25;3.35;;;;;;;20.07;65.19;101748.75;4970139;28;100783;-30
2023/05/06 09:33:53;;;;;;;11.02;4.45;;;;;;;20.17;65.93;101748.81;4970202;28;96557;-31
2023/05/06 09:36:19;;;;;;;6.95;3.85;;;;;;;20.05;64.38;101752.63;4970294;28;96897;-32
2023/05/06 09:38:44;;;;;;;8.73;3.53;;;;;;;20.09;64.22;101737.59;4969486;28;100865;-33
2023/05/06 09:41:11;;;;;;;7.00;3.30;;;;;;;20.21;63.89;101736.50;4971450;28;97943;-31
2023/05/06 09:43:40;;;;;;;9.13;3.72;;;;;;;20.32;64.77;101739.19;4953771;28;96801;-32
2023/05/06 09:46:06;;;;;;;8.32;3.63;;;;;;;20.26;64.40;101741.59;4973046;28;96825;-33
2023/05/06 09:48:32;;;;;;;7.00;3.47;;;;;;;20.26;62.61;101734.25;4974369;28;99320;-29
2023/05/06 09:50:58;;;;;;;6.90;3.83;;;;;;;20.35;63.29;101733.44;4973121;28;100917;-31
2023/05/06 09:53:26;;;;;;;9.00;3.67;;;;;;;20.17;61.81;101729.53;4973270;28;96601;-30
2023/05/06 09:55:52;;;;;;;11.93;3.97;;;;;;;20.29;63.54;101736.72;4973632;28;96845;-30
2023/05/06 09:58:19;;;;;;;9.68;3.97;;;;;;;20.13;63.21;101736.31;4972847;28;100786;-31
2023/05/06 10:00:45;;;;;;;10.35;3.72;;;;;;;20.29;63.29;101733.97;4974192;28;97324;-30
2023/05/06 10:03:15;;;;;;;5.70;3.17;;;;;;;20.37;61.32;101734.13;4972629;28;97244;-31
2023/05/06 10:05:41;;;;;;;7.15;3.55;;;;;;;20.41;63.51;101729.25;4973049;28;96794;-32
2023/05/06 10:08:08;;;;;;;8.32;3.30;;;;;;;20.53;63.01;101728.13;4972767;28;101378;-32
2023/05/06 10:10:34;;;;;;;7.40;3.92;;;;;;;20.53;60.44;101721.78;4974077;28;98786;-30
2023/05/06 10:13:05;;;;;;;5.50;3.03;;;;;;;20.26;62.39;101720.47;4972577;28;96717;-30
2023/05/06 10:15:31;;;;;;;6.05;3.08;;;;;;;20.07;63.73;101717.59;4972881;28;96734;-30
2023/05/06 10:18:00;;;;;;;4.80;2.88;;;;;;;19.91;63.64;101720.84;4972762;28;100698;-30
2023/05/06 10:20:26;;;;;;;7.28;3.03;;;;;;;20.17;62.17;101715.78;4973018;28;101458;-30
2023/05/06 10:22:58;;;;;;;6.60;2.92;;;;;;;20.36;61.53;101720.53;4972664;28;96597;-31
2023/05/06 10:25:26;;;;;;;5.30;3.05;;;;;;;20.28;61.77;101723.94;4972478;28;96785;-30
2023/05/06 10:27:52;;;;;;;8.02;2.72;;;;;;;20.29;61.65;101722.09;4973504;28;97907;-30
2023/05/06 10:30:18;;;;;;;5.60;2.95;;;;;;;20.35;62.19;101724.28;4973805;28;99838;-30
2023/05/06 10:32:45;;;;;;;5.47;2.28;;;;;;;20.33;61.45;101715.28;4972540;28;96762;-31
2023/05/06 10:35:43;;;;;;;7.15;3.55;;;;;;;20.53;61.74;101717.13;4972681;28;96890;-30
2023/05/06 10:38:14;;;;;;;6.47;2.42;;;;;;;20.51;58.57;101710.03;4971570;28;101147;-30
2023/05/06 10:40:39;;;;;;;4.43;2.00;;;;;;;20.49;58.35;101714.78;4972384;28;100922;-30
2023/05/06 10:43:30;;;;;;;7.97;2.17;;;;;;;20.62;56.91;101720.97;4972562;28;96700;-30
2023/05/06 10:46:02;;;;;;;3.30;1.90;;;;;;;20.55;56.91;101706.88;4973958;28;96864;-33
2023/05/06 10:48:29;;;;;;;4.57;1.73;;;;;;;20.63;58.24;101703.44;4973568;28;99320;-30
2023/05/06 10:51:23;;;;;;;3.92;1.75;;;;;;;20.86;59.47;101700.47;4972163;28;100767;-31
2023/05/06 10:54:06;;;;;;;3.17;1.83;;;;;;;20.73;57.05;101696.06;4971651;28;97118;-32
2023/05/06 10:56:33;;;;;;;3.75;1.67;;;;;;;20.65;57.79;101704.16;4973296;28;96629;-31
2023/05/06 10:59:06;;;;;;;2.70;1.35;;;;;;;20.55;58.47;101701.38;4971928;28;100930;-31
2023/05/06 11:01:34;;;;;;;3.97;1.85;;;;;;;20.49;59.51;101706.53;4972050;28;100987;-30
2023/05/06 11:04:11;;;;;;;4.10;1.63;;;;;;;20.66;56.57;101700.41;4972163;28;96778;-30
2023/05/06 11:06:47;;;;;;;4.55;2.22;;;;;;;20.69;57.91;101704.75;4973497;28;96896;-30
2023/05/06 11:09:22;;;;;;;3.95;1.90;;;;;;;20.84;57.71;101699.75;4971968;28;100947;-30
2023/05/06 11:12:03;;;;;;;4.00;1.83;;;;;;;20.92;56.55;101694.41;4972107;28;98764;-30
2023/05/06 11:14:36;;;;;;;5.25;2.42;;;;;;;20.82;56.62;101699.00;4973264;28;96630;-30
2023/05/06 11:17:06;;;;;;;5.85;2.60;;;;;;;20.89;58.89;101705.69;4971958;28;96837;-31
2023/05/06 11:19:34;;;;;;;8.70;2.65;;;;;;;20.91;58.25;101693.53;4971117;28;101248;-32
2023/05/06 11:22:01;;;;;;;5.97;3.20;;;;;;;20.94;58.88;101696.00;4971775;28;100709;-30
2023/05/06 11:24:29;;;;;;;5.57;2.85;;;;;;;21.00;58.90;101691.81;4971026;28;96848;-31
2023/05/06 11:26:58;;;;;;;6.57;2.60;;;;;;;21.13;58.83;101697.06;4971680;28;98054;-30
2023/05/06 11:29:25;;;;;;;4.72;2.72;;;;;;;21.10;56.85;101691.84;4972952;28;98311;-30
2023/05/06 11:31:52;;;;;;;7.18;2.85;;;;;;;21.07;58.18;101694.84;4972422;28;99251;-30
2023/05/06 11:34:26;;;;;;;4.40;2.58;;;;;;;21.06;57.52;101690.38;4971590;28;96545;-30
2023/05/06 11:36:57;;;;;;;7.28;2.63;;;;;;;21.20;57.52;101682.56;4973394;28;96746;-30
2023/05/06 11:39:23;;;;;;;4.32;2.40;;;;;;;21.32;56.00;101685.19;4971471;28;98943;-30
2023/05/06 11:41:48;;;;;;;5.88;2.58;;;;;;;21.32;57.60;101679.66;4972874;28;97786;-30
2023/05/06 11:44:23;;;;;;;5.63;3.33;;;;;;;21.38;57.44;101687.34;4971076;28;96642;-30
2023/05/06 11:46:49;;;;;;;6.28;3.30;;;;;;;21.33;58.56;101686.91;4971459;28;96924;-29
2023/05/06 11:49:15;;;;;;;5.10;2.58;;;;;;;21.32;56.68;101685.19;4972603;28;99412;-30
2023/05/06 11:51:40;;;;;;;7.63;2.63;;;;;;;21.22;56.76;101682.41;4972813;28;97645;-30
2023/05/06 11:54:09;;;;;;;6.50;2.83;;;;;;;21.23;57.83;101678.63;4972932;28;96434;-32
2023/05/06 11:56:45;;;;;;;5.47;2.72;;;;;;;21.13;57.16;101675.88;4972751;28;96802;-30
2023/05/06 11:59:11;;;;;;;8.07;3.20;;;;;;;21.20;58.35;101679.78;4972016;28;99283;-29
2023/05/06 12:01:38;;;;;;;5.10;2.80;;;;;;;21.13;58.14;101686.03;4972810;28;99260;-30
2023/05/06 12:04:03;;;;;;;5.20;2.58;;;;;;;21.21;59.50;101687.06;4972577;28;96478;-30
2023/05/06 12:06:35;;;;;;;8.00;2.97;;;;;;;21.20;58.49;101689.94;4972829;28;96836;-29
2023/05/06 12:09:05;;;;;;;4.20;2.33;;;;;;;21.21;57.71;101689.81;4970087;28;100843;-30
2023/05/06 12:11:33;;;;;;;5.65;2.47;;;;;;;21.45;56.27;101695.94;4972073;28;99244;-29
2023/05/06 12:13:59;;;;;;;3.10;1.95;;;;;;;21.52;57.69;101692.44;4971178;28;96695;-30
2023/05/06 12:16:25;;;;;;;4.10;2.40;;;;;;;21.56;57.33;101698.56;4971297;28;96877;-30
2023/05/06 12:18:52;;;;;;;5.03;2.67;;;;;;;21.49;57.13;101692.75;4970844;28;101420;-30
2023/05/06 12:21:24;;;;;;;3.90;2.22;;;;;;;21.31;55.76;101694.44;4970900;28;100841;-30
2023/05/06 12:23:52;;;;;;;7.32;2.40;;;;;;;21.24;57.53;101690.53;4970339;28;96925;-29
2023/05/06 12:26:18;;;;;;;5.28;2.15;;;;;;;21.14;57.46;101701.53;4971103;28;96900;-30
2023/05/06 12:28:44;;;;;;;4.97;2.85;;;;;;;20.98;57.50;101696.59;4970877;28;101291;-30
2023/05/06 12:31:20;;;;;;;3.83;2.35;;;;;;;20.94;56.71;101696.00;4970727;28;100838;-31
2023/05/06 12:33:50;;;;;;;6.43;2.47;;;;;;;20.90;56.20;101700.03;4970530;28;97338;-29
2023/05/06 12:36:16;;;;;;;4.43;2.15;;;;;;;20.76;57.19;101704.06;4972165;28;96777;-30
2023/05/06 12:38:51;;;;;;;4.55;2.80;;;;;;;20.74;57.42;101700.59;4970705;28;100821;-30
2023/05/06 12:41:18;;;;;;;4.25;2.80;;;;;;;20.72;56.50;101694.34;4970766;28;100703;-30
2023/05/06 12:43:43;;;;;;;5.28;2.47;;;;;;;20.75;57.78;101693.19;4970747;28;96596;-30
2023/05/06 12:46:11;;;;;;;4.88;2.88;;;;;;;20.83;58.47;101685.09;4972340;28;96817;-30
2023/05/06 12:48:37;;;;;;;3.40;2.13;;;;;;;20.77;57.57;101700.28;4970421;28;100872;-30
2023/05/06 12:51:16;;;;;;;5.25;2.72;;;;;;;20.88;58.08;101692.91;4970628;28;98240;-29
2023/05/06 12:53:42;;;;;;;3.75;2.35;;;;;;;20.87;56.91;101691.19;4970692;28;96673;-31
2023/05/06 12:56:07;;;;;;;4.47;2.72;;;;;;;20.83;57.61;101698.00;4972065;28;96846;-30
2023/05/06 12:58:36;;;;;;;5.97;2.97;;;;;;;20.74;57.23;101703.34;4971272;28;100403;-30
2023/05/06 13:01:01;;;;;;;5.82;2.63;;;;;;;20.74;57.63;101697.84;4971565;28;99619;-30
2023/05/06 13:03:27;;;;;;;3.95;2.55;;;;;;;20.79;57.15;101697.41;4970901;28;96587;-31
2023/05/06 13:05:52;;;;;;;9.02;3.38;;;;;;;20.92;57.86;101687.00;4971776;28;96833;-30
2023/05/06 13:08:18;;;;;;;5.68;2.78;;;;;;;21.07;57.59;101697.59;4971626;28;99969;-30
2023/05/06 13:10:43;;;;;;;7.57;2.58;;;;;;;21.14;56.79;101694.16;4971872;28;97795;-30
2023/05/06 13:13:09;;;;;;;13.00;3.40;;;;;;;21.21;57.77;101687.06;4972020;28;96480;-30
2023/05/06 13:15:34;;;;;;;7.53;3.05;;;;;;;21.29;55.85;101696.50;4972331;28;96790;-30
2023/05/06 13:17:59;;;;;;;5.13;2.50;;;;;;;21.36;57.14;101694.91;4971662;28;98008;-30
2023/05/06 13:20:26;;;;;;;6.30;2.50;;;;;;;21.31;56.05;101692.59;4973454;28;99174;-30
2023/05/06 13:22:51;;;;;;;2.65;1.77;;;;;;;21.25;54.76;101695.03;4974765;28;96844;-31
2023/05/06 13:25:16;;;;;;;5.78;2.33;;;;;;;21.24;54.31;101693.28;4974862;28;96895;-29
2023/05/06 13:27:41;;;;;;;4.35;2.35;;;;;;;21.16;54.65;101694.88;4974787;28;99196;-30
2023/05/06 13:30:07;;;;;;;2.97;2.28;;;;;;;21.13;54.97;101684.13;4973755;28;97303;-31
2023/05/06 13:32:33;;;;;;;4.60;2.30;;;;;;;21.09;53.96;101684.56;4974168;28;96949;-29
2023/05/06 13:34:58;;;;;;;5.38;2.55;;;;;;;21.08;54.80;101691.97;4974861;28;96764;-32
2023/05/06 13:37:23;;;;;;;3.38;2.15;;;;;;;21.13;55.65;101686.91;4974395;28;111633;-29
2023/05/06 13:39:48;;;;;;;3.28;2.20;;;;;;;21.11;54.61;101677.91;4975191;28;97852;-30
2023/05/06 13:42:14;;;;;;;5.10;2.35;;;;;;;21.09;55.23;101685.44;4975047;28;96693;-31
2023/05/06 13:44:39;;;;;;;4.45;2.20;;;;;;;21.20;55.59;101692.72;4974595;28;96768;-31
2023/05/06 13:47:05;;;;;;;3.55;2.08;;;;;;;21.13;55.20;101677.75;4974239;28;97746;-29
2023/05/06 13:49:30;;;;;;;4.82;2.25;;;;;;;21.19;54.56;101680.81;4976600;28;99134;-30
2023/05/06 13:51:56;;;;;;;2.33;1.70;;;;;;;21.14;54.86;101677.63;4980379;28;96739;-30
2023/05/06 13:54:21;;;;;;;2.60;1.70;;;;;;;21.16;54.90;101663.69;4984996;28;96872;-30
2023/05/06 13:56:47;;;;;;;3.83;1.63;;;;;;;21.11;53.84;101669.63;4983102;28;99806;-30
2023/05/06 13:59:12;;;;;;;4.10;1.85;;;;;;;21.07;54.37;101670.06;4983176;28;99270;-29
2023/05/06 14:01:38;;;;;;;3.75;1.80;;;;;;;21.04;54.89;101664.84;4984914;28;96696;-33
2023/05/06 14:04:04;;;;;;;4.55;2.00;;;;;;;21.02;54.75;101664.97;4983205;28;96759;-30
2023/05/06 14:06:29;;;;;;;3.38;1.77;;;;;;;21.09;54.62;101660.63;4982337;28;100461;-30
2023/05/06 14:08:55;;;;;;;4.80;2.13;;;;;;;21.12;54.42;101665.88;4972922;28;101003;-30
2023/05/06 14:11:20;;;;;;;2.50;1.58;;;;;;;21.04;54.70;101659.34;4973387;28;97075;-30
2023/05/06 14:13:45;;;;;;;2.78;1.70;;;;;;;20.95;54.05;101663.81;4974158;28;96848;-30
2023/05/06 14:16:11;;;;;;;4.10;1.90;;;;;;;21.02;55.00;101658.59;4974372;28;98085;-29
2023/05/06 14:18:36;;;;;;;4.13;2.33;;;;;;;20.99;55.11;101654.25;4973950;28;97312;-29
2023/05/06 14:21:02;;;;;;;2.63;1.42;;;;;;;20.99;55.77;101657.00;4973729;28;105865;-30
2023/05/06 14:23:27;;;;;;;6.60;2.00;;;;;;;20.97;55.34;101653.50;4972184;28;96951;-30
2023/05/06 14:25:53;;;;;;;4.15;2.38;;;;;;;20.97;55.01;101656.28;4973654;28;99448;-30
2023/05/06 14:28:18;;;;;;;5.05;1.85;;;;;;;20.91;55.17;101651.34;4974379;28;97943;-31
2023/05/06 14:30:43;;;;;;;3.67;1.67;;;;;;;20.94;55.40;101648.31;4973283;28;101982;-30
2023/05/06 14:33:09;;;;;;;2.63;1.52;;;;;;;20.94;54.47;101651.91;4973927;28;96999;-30
2023/05/06 14:35:34;;;;;;;4.55;1.60;;;;;;;20.93;55.47;101652.09;4973101;28;99455;-30
2023/05/06 14:38:00;;;;;;;2.90;1.80;;;;;;;20.89;54.48;101654.22;4973970;28;97837;-30
2023/05/06 14:40:25;;;;;;;1.25;1.15;;;;;;;20.83;54.70;101648.41;4973820;28;96589;-30
2023/05/06 14:42:52;;;;;;;4.20;1.30;;;;;;;20.86;54.83;101651.78;4974150;28;96773;-30
2023/05/06 14:45:18;;;;;;;2.78;1.08;;;;;;;20.92;55.46;101647.56;4972198;28;101337;-29
2023/05/06 14:47:44;;;;;;;3.00;1.42;;;;;;;20.94;54.85;101634.53;4973478;28;99229;-30
2023/05/06 14:50:10;;;;;;;1.83;1.20;;;;;;;20.98;56.04;101652.53;4972397;28;96609;-30
2023/05/06 14:52:40;;;;;;;2.53;1.20;;;;;;;20.99;56.41;101651.50;4972613;28;96930;-30
2023/05/06 14:55:08;;;;;;;4.68;1.58;;;;;;;20.90;54.79;101644.09;4972163;28;101611;-30
2023/05/06 14:57:34;;;;;;;3.08;1.42;;;;;;;20.88;54.60;101640.59;4971987;28;100999;-30
2023/05/06 15:00:01;;;;;;;2.13;1.15;;;;;;;20.91;55.42;101648.59;4973148;28;97047;-29
2023/05/06 15:02:27;;;;;;;4.95;1.45;;;;;;;20.92;56.09;101642.91;4973261;28;96833;-30
2023/05/06 15:04:52;;;;;;;2.35;1.20;;;;;;;20.94;55.95;101638.16;4973486;28;97937;-29
2023/05/06 15:07:17;;;;;;;5.90;1.60;;;;;;;20.91;56.26;101637.56;4973495;28;97920;-31
2023/05/06 15:09:43;;;;;;;1.95;1.40;;;;;;;20.90;55.92;101635.81;4973569;28;96519;-30
2023/05/06 15:12:10;;;;;;;3.25;1.38;;;;;;;20.83;54.91;101641.03;4973696;28;96846;-31
2023/05/06 15:14:37;;;;;;;1.92;1.15;;;;;;;20.76;55.95;101637.09;4971747;28;101257;-30
2023/05/06 15:17:02;;;;;;;4.20;1.23;;;;;;;20.71;55.07;101633.91;4972117;28;100904;-31
2023/05/06 15:19:28;;;;;;;1.77;1.17;;;;;;;20.64;55.92;101636.38;4973414;28;96643;-30
2023/05/06 15:21:53;;;;;;;1.85;1.05;;;;;;;20.63;56.64;101634.59;4973443;28;96838;-30
2023/05/06 15:24:18;;;;;;;2.50;1.35;;;;;;;20.62;56.14;101638.38;4972485;28;96857;-30
2023/05/06 15:26:44;;;;;;;3.67;1.45;;;;;;;20.65;56.15;101643.59;4972826;28;103085;-30
2023/05/06 15:29:09;;;;;;;1.90;1.10;;;;;;;20.63;57.07;101639.25;4973114;28;96721;-29
2023/05/06 15:31:37;;;;;;;2.67;1.13;;;;;;;20.67;57.21;101635.22;4972694;28;96918;-29
2023/05/06 15:34:08;;;;;;;1.23;1.05;;;;;;;20.66;57.19;101637.06;4971620;28;101118;-31
2023/05/06 15:36:33;;;;;;;6.32;1.33;;;;;;;20.63;57.01;101634.59;4971542;28;101022;-30
2023/05/06 15:38:59;;;;;;;1.70;1.27;;;;;;;20.58;56.70;101642.41;4973118;28;96684;-30
2023/05/06 15:41:27;;;;;;;2.53;1.40;;;;;;;20.57;57.13;101632.44;4971717;28;96833;-31
2023/05/06 15:43:55;;;;;;;3.47;1.50;;;;;;;20.55;57.34;101639.94;4970814;28;101131;-30